Time,TemperatureF,DewpointF,PressureIn,WindDirection,WindDirectionDegrees,WindSpeedMPH,WindSpeedGustMPH,Humidity,HourlyPrecipIn,Conditions,Clouds,dailyrainin,SoftwareType,DateUTC
2013-09-01 00:02:00,76.7,64.5,29.98,WSW,246,15.0,15.0,66,0.00,CLR,,0.00,WeatherDisplay:10.37,2013-09-01 07:02:00,
2013-09-01 00:07:00,76.7,64.5,29.98,SW,232,13.0,13.0,66,0.00,CLR,,0.00,WeatherDisplay:10.37,2013-09-01 07:07:00,
2013-09-01 00:12:00,76.6,64.8,29.98,WSW,240,10.4,10.4,67,0.00,CLR,,0.00,WeatherDisplay:10.37,2013-09-01 07:12:00,
2013-09-01 00:17:00,76.5,64.7,29.98,WSW,241,11.5,11.5,67,0.00,CLR,,0.00,WeatherDisplay:10.37,2013-09-01 07:17:00,
2013-09-01 00:22:00,76.4,64.6,29.98,WSW,247,11.5,11.5,67,0.00,CLR,,0.00,WeatherDisplay:10.37,2013-09-01 07:22:00,
2013-09-01 00:27:00,76.2,64.4,29.98,WSW,243,16.1,16.1,67,0.00,CLR,,0.00,WeatherDisplay:10.37,2013-09-01 07:27:00,
2013-09-01 00:32:00,76.1,64.8,29.98,SW,220,12.7,12.7,68,0.00,CLR,,0.00,WeatherDisplay:10.37,2013-09-01 07:32:00,
2013-09-01 00:37:00,76.1,64.8,29.98,SW,229,12.7,12.7,68,0.00,CLR,,0.00,WeatherDisplay:10.37,2013-09-01 07:37:00,
2013-09-01 00:42:00,76.1,64.8,29.98,SW,228,13.8,13.8,68,0.00,CLR,,0.00,WeatherDisplay:10.37,2013-09-01 07:42:00,
2013-09-01 00:47:00,76.1,64.3,29.98,SW,227,12.7,12.7,67,0.00,CLR,,0.00,WeatherDisplay:10.37,2013-09-01 07:47:00,
2013-09-01 00:52:00,76.1,64.3,29.99,SW,224,11.5,11.5,67,0.00,CLR,,0.00,WeatherDisplay:10.37,2013-09-01 07:52:00,
2013-09-01 00:57:00,76.0,64.2,29.99,SW,226,11.5,11.5,67,0.00,CLR,,0.00,WeatherDisplay:10.37,2013-09-01 07:57:00,
2013-09-01 01:02:00,75.9,64.2,29.98,SW,228,10.4,10.4,67,0.00,CLR,,0.00,WeatherDisplay:10.37,2013-09-01 08:02:00,
2013-09-01 01:07:00,75.9,64.2,29.98,SSW,209,13.0,13.0,67,0.00,CLR,,0.00,WeatherDisplay:10.37,2013-09-01 08:07:00,
2013-09-01 01:12:00,75.8,64.1,29.98,SW,231,12.0,12.0,67,0.00,CLR,,0.00,WeatherDisplay:10.37,2013-09-01 08:12:00,
2013-09-01 01:17:00,75.8,64.1,29.98,WSW,250,10.4,10.4,67,0.00,CLR,,0.00,WeatherDisplay:10.37,2013-09-01 08:17:00,
2013-09-01 01:22:00,75.7,64.0,29.98,SW,221,11.5,11.5,67,0.00,CLR,,0.00,WeatherDisplay:10.37,2013-09-01 08:22:00,
2013-09-01 01:27:00,75.6,63.9,29.98,WSW,242,11.5,11.5,67,0.00,CLR,,0.00,WeatherDisplay:10.37,2013-09-01 08:27:00,
2013-09-01 01:32:00,75.5,63.8,29.97,SW,215,13.0,13.0,67,0.00,CLR,,0.00,WeatherDisplay:10.37,2013-09-01 08:32:00,
2013-09-01 01:37:00,75.4,63.7,29.97,SW,223,11.0,11.0,67,0.00,CLR,,0.00,WeatherDisplay:10.37,2013-09-01 08:37:00,
2013-09-01 01:42:00,75.3,63.6,29.97,SW,236,9.2,9.2,67,0.00,CLR,,0.00,WeatherDisplay:10.37,2013-09-01 08:42:00,
2013-09-01 01:47:00,75.1,63.8,29.97,SW,221,10.4,10.4,68,0.00,CLR,,0.00,WeatherDisplay:10.37,2013-09-01 08:47:00,
2013-09-01 01:52:00,75.1,63.8,29.97,WSW,238,10.4,10.4,68,0.00,CLR,,0.00,WeatherDisplay:10.37,2013-09-01 08:52:00,
2013-09-01 01:57:00,75.1,63.8,29.97,SSW,213,11.5,11.5,68,0.00,CLR,,0.00,WeatherDisplay:10.37,2013-09-01 08:57:00,
2013-09-01 02:03:00,75.1,63.8,29.97,SW,227,12.7,12.7,68,0.00,CLR,,0.00,WeatherDisplay:10.37,2013-09-01 09:03:00,
2013-09-01 02:08:00,75.2,63.9,29.97,SW,217,13.8,13.8,68,0.00,CLR,,0.00,WeatherDisplay:10.37,2013-09-01 09:08:00,
2013-09-01 02:13:00,75.1,63.8,29.96,SSW,207,12.7,12.7,68,0.00,CLR,,0.00,WeatherDisplay:10.37,2013-09-01 09:13:00,
2013-09-01 02:18:00,75.1,63.8,29.96,SSW,205,11.5,11.5,68,0.00,CLR,,0.00,WeatherDisplay:10.37,2013-09-01 09:18:00,
2013-09-01 02:23:00,75.0,63.7,29.96,SW,236,11.5,11.5,68,0.00,CLR,,0.00,WeatherDisplay:10.37,2013-09-01 09:23:00,
2013-09-01 02:28:00,74.9,63.6,29.96,SW,214,12.7,12.7,68,0.00,CLR,,0.00,WeatherDisplay:10.37,2013-09-01 09:28:00,
2013-09-01 02:33:00,74.9,63.6,29.96,WSW,254,13.8,13.8,68,0.00,CLR,,0.00,WeatherDisplay:10.37,2013-09-01 09:33:00,
2013-09-01 02:38:00,74.9,63.6,29.96,SSW,204,11.5,11.5,68,0.00,CLR,,0.00,WeatherDisplay:10.37,2013-09-01 09:38:00,
2013-09-01 02:43:00,74.9,64.0,29.95,SW,236,16.1,16.1,69,0.00,CLR,,0.00,WeatherDisplay:10.37,2013-09-01 09:43:00,
2013-09-01 02:48:00,74.9,64.0,29.95,SSW,209,15.0,15.0,69,0.00,CLR,,0.00,WeatherDisplay:10.37,2013-09-01 09:48:00,
2013-09-01 02:53:00,74.9,64.0,29.95,SW,234,11.5,11.5,69,0.00,CLR,,0.00,WeatherDisplay:10.37,2013-09-01 09:53:00,
2013-09-01 02:58:00,74.8,63.9,29.95,SW,235,11.5,11.5,69,0.00,CLR,,0.00,WeatherDisplay:10.37,2013-09-01 09:58:00,
2013-09-01 03:03:00,74.8,63.9,29.95,SW,228,11.5,11.5,69,0.00,CLR,,0.00,WeatherDisplay:10.37,2013-09-01 10:03:00,
2013-09-01 03:08:00,74.8,63.9,29.95,SW,234,6.9,6.9,69,0.00,CLR,,0.00,WeatherDisplay:10.37,2013-09-01 10:08:00,
2013-09-01 03:13:00,74.8,63.5,29.95,SW,234,10.4,10.4,68,0.00,CLR,,0.00,WeatherDisplay:10.37,2013-09-01 10:13:00,
2013-09-01 03:18:00,74.8,63.5,29.95,West,263,9.2,9.2,68,0.00,CLR,,0.00,WeatherDisplay:10.37,2013-09-01 10:18:00,
2013-09-01 03:23:00,74.8,63.5,29.95,WSW,244,6.9,6.9,68,0.00,CLR,,0.00,WeatherDisplay:10.37,2013-09-01 10:23:00,
2013-09-01 03:28:00,74.8,63.1,29.95,WSW,256,4.6,4.6,67,0.00,CLR,,0.00,WeatherDisplay:10.37,2013-09-01 10:28:00,
2013-09-01 03:33:00,74.7,63.0,29.95,WSW,254,5.0,5.0,67,0.00,CLR,,0.00,WeatherDisplay:10.37,2013-09-01 10:33:00,
2013-09-01 03:38:00,74.6,62.9,29.95,SW,226,6.0,6.0,67,0.00,CLR,,0.00,WeatherDisplay:10.37,2013-09-01 10:38:00,
2013-09-01 03:43:00,74.5,62.8,29.95,SW,232,5.8,5.8,67,0.00,CLR,,0.00,WeatherDisplay:10.37,2013-09-01 10:43:00,
2013-09-01 03:48:00,74.4,62.7,29.95,WSW,254,5.0,5.0,67,0.00,CLR,,0.00,WeatherDisplay:10.37,2013-09-01 10:48:00,
2013-09-01 03:53:00,74.3,62.6,29.95,West,263,5.0,5.0,67,0.00,CLR,,0.00,WeatherDisplay:10.37,2013-09-01 10:53:00,
2013-09-01 03:58:00,74.4,62.7,29.95,West,263,4.0,4.0,67,0.00,CLR,,0.00,WeatherDisplay:10.37,2013-09-01 10:58:00,
2013-09-01 04:03:00,74.3,62.6,29.95,WSW,253,4.0,4.0,67,0.00,CLR,,0.00,WeatherDisplay:10.37,2013-09-01 11:03:00,
2013-09-01 04:08:00,74.2,62.5,29.95,West,266,5.0,5.0,67,0.00,CLR,,0.00,WeatherDisplay:10.37,2013-09-01 11:08:00,
2013-09-01 04:13:00,74.2,62.5,29.95,West,263,3.5,3.5,67,0.00,CLR,,0.00,WeatherDisplay:10.37,2013-09-01 11:13:00,
2013-09-01 04:18:00,74.1,62.4,29.95,West,259,3.5,3.5,67,0.00,CLR,,0.00,WeatherDisplay:10.37,2013-09-01 11:18:00,
2013-09-01 04:23:00,74.1,62.4,29.95,WSW,252,4.6,4.6,67,0.00,CLR,,0.00,WeatherDisplay:10.37,2013-09-01 11:23:00,
2013-09-01 04:28:00,74.1,62.4,29.95,West,261,3.5,3.5,67,0.00,CLR,,0.00,WeatherDisplay:10.37,2013-09-01 11:28:00,
2013-09-01 04:33:00,74.1,62.4,29.95,SW,233,3.5,3.5,67,0.00,CLR,,0.00,WeatherDisplay:10.37,2013-09-01 11:33:00,
2013-09-01 04:38:00,74.1,62.0,29.95,SW,234,2.3,2.3,66,0.00,CLR,,0.00,WeatherDisplay:10.37,2013-09-01 11:38:00,
2013-09-01 04:43:00,74.2,62.5,29.95,SW,231,10.4,10.4,67,0.00,CLR,,0.00,WeatherDisplay:10.37,2013-09-01 11:43:00,
2013-09-01 04:48:00,74.4,62.7,29.95,WSW,238,9.2,9.2,67,0.00,CLR,,0.00,WeatherDisplay:10.37,2013-09-01 11:48:00,
2013-09-01 04:53:00,74.6,62.5,29.95,SW,227,6.9,6.9,66,0.00,CLR,,0.00,WeatherDisplay:10.37,2013-09-01 11:53:00,
2013-09-01 04:58:00,74.6,62.5,29.95,SSW,211,6.9,6.9,66,0.00,CLR,,0.00,WeatherDisplay:10.37,2013-09-01 11:58:00,
2013-09-01 05:03:00,74.6,62.1,29.95,SW,234,5.8,5.8,65,0.00,CLR,,0.00,WeatherDisplay:10.37,2013-09-01 12:03:00,
2013-09-01 05:08:00,74.6,62.1,29.95,SW,236,7.0,7.0,65,0.00,CLR,,0.00,WeatherDisplay:10.37,2013-09-01 12:08:00,
2013-09-01 05:13:00,74.6,62.1,29.95,WSW,251,5.8,5.8,65,0.00,CLR,,0.00,WeatherDisplay:10.37,2013-09-01 12:13:00,
2013-09-01 05:18:00,74.6,62.1,29.95,SW,221,9.2,9.2,65,0.00,CLR,,0.00,WeatherDisplay:10.37,2013-09-01 12:18:00,
2013-09-01 05:23:00,74.6,61.6,29.96,WSW,242,5.8,5.8,64,0.00,CLR,,0.00,WeatherDisplay:10.37,2013-09-01 12:23:00,
2013-09-01 05:28:00,74.5,62.0,29.96,WSW,255,9.2,9.2,65,0.00,CLR,,0.00,WeatherDisplay:10.37,2013-09-01 12:28:00,
2013-09-01 05:33:00,74.5,62.0,29.96,WSW,237,10.4,10.4,65,0.00,CLR,,0.00,WeatherDisplay:10.37,2013-09-01 12:33:00,
2013-09-01 05:38:00,74.5,62.0,29.96,SW,219,9.2,9.2,65,0.00,CLR,,0.00,WeatherDisplay:10.37,2013-09-01 12:38:00,
2013-09-01 05:43:00,74.4,61.9,29.97,SW,231,5.8,5.8,65,0.00,CLR,,0.00,WeatherDisplay:10.37,2013-09-01 12:43:00,
2013-09-01 05:48:00,74.4,61.9,29.97,WSW,254,5.8,5.8,65,0.00,CLR,,0.00,WeatherDisplay:10.37,2013-09-01 12:48:00,
2013-09-01 05:53:00,74.3,62.2,29.96,WSW,249,5.8,5.8,66,0.00,CLR,,0.00,WeatherDisplay:10.37,2013-09-01 12:53:00,
2013-09-01 05:58:00,74.2,62.1,29.96,WSW,253,9.2,9.2,66,0.00,CLR,,0.00,WeatherDisplay:10.37,2013-09-01 12:58:00,
2013-09-01 06:03:00,74.1,62.0,29.96,WSW,244,6.9,6.9,66,0.00,CLR,,0.00,WeatherDisplay:10.37,2013-09-01 13:03:00,
2013-09-01 06:08:00,74.0,61.9,29.96,West,261,3.5,3.5,66,0.00,CLR,,0.00,WeatherDisplay:10.37,2013-09-01 13:08:00,
2013-09-01 06:13:00,73.9,61.8,29.97,WSW,245,3.5,3.5,66,0.00,CLR,,0.00,WeatherDisplay:10.37,2013-09-01 13:13:00,
2013-09-01 06:18:00,73.7,62.1,29.97,WSW,241,4.6,4.6,67,0.00,CLR,,0.00,WeatherDisplay:10.37,2013-09-01 13:18:00,
2013-09-01 06:23:00,73.7,62.5,29.97,SW,236,10.4,10.4,68,0.00,CLR,,0.00,WeatherDisplay:10.37,2013-09-01 13:23:00,
2013-09-01 06:28:00,73.8,62.6,29.97,WSW,237,5.8,5.8,68,0.00,CLR,,0.00,WeatherDisplay:10.37,2013-09-01 13:28:00,
2013-09-01 06:33:00,73.8,62.6,29.97,WSW,251,5.8,5.8,68,0.00,CLR,,0.00,WeatherDisplay:10.37,2013-09-01 13:33:00,
2013-09-01 06:38:00,73.8,62.6,29.97,West,268,4.6,4.6,68,0.00,CLR,,0.00,WeatherDisplay:10.37,2013-09-01 13:38:00,
2013-09-01 06:43:00,73.8,62.6,29.97,WSW,253,6.9,6.9,68,0.00,CLR,,0.00,WeatherDisplay:10.37,2013-09-01 13:43:00,
2013-09-01 06:48:00,73.9,62.7,29.97,WSW,238,6.9,6.9,68,0.00,CLR,,0.00,WeatherDisplay:10.37,2013-09-01 13:48:00,
2013-09-01 06:53:00,74.1,62.4,29.97,WSW,237,9.2,9.2,67,0.00,CLR,,0.00,WeatherDisplay:10.37,2013-09-01 13:53:00,
2013-09-01 06:58:00,74.3,62.6,29.97,WSW,239,6.9,6.9,67,0.00,CLR,,0.00,WeatherDisplay:10.37,2013-09-01 13:58:00,
2013-09-01 07:03:00,74.4,62.3,29.97,SW,225,5.8,5.8,66,0.00,CLR,,0.00,WeatherDisplay:10.37,2013-09-01 14:03:00,
2013-09-01 07:08:00,74.5,62.4,29.97,WSW,237,9.2,9.2,66,0.00,CLR,,0.00,WeatherDisplay:10.37,2013-09-01 14:08:00,
2013-09-01 07:13:00,74.7,62.1,29.97,SW,236,6.9,6.9,65,0.00,CLR,,0.00,WeatherDisplay:10.37,2013-09-01 14:13:00,
2013-09-01 07:18:00,74.9,62.3,29.97,SW,234,12.7,12.7,65,0.00,CLR,,0.00,WeatherDisplay:10.37,2013-09-01 14:18:00,
2013-09-01 07:23:00,75.2,62.2,29.97,WSW,237,13.8,13.8,64,0.00,CLR,,0.00,WeatherDisplay:10.37,2013-09-01 14:23:00,
2013-09-01 07:28:00,75.4,62.4,29.97,WSW,256,11.5,11.5,64,0.00,CLR,,0.00,WeatherDisplay:10.37,2013-09-01 14:28:00,
2013-09-01 07:33:00,75.5,62.5,29.97,WSW,255,11.5,11.5,64,0.00,CLR,,0.00,WeatherDisplay:10.37,2013-09-01 14:33:00,
2013-09-01 07:38:00,75.7,62.7,29.97,West,260,9.2,9.2,64,0.00,CLR,,0.00,WeatherDisplay:10.37,2013-09-01 14:38:00,
2013-09-01 07:43:00,75.9,62.8,29.97,WSW,245,10.0,10.0,64,0.00,CLR,,0.00,WeatherDisplay:10.37,2013-09-01 14:43:00,
2013-09-01 07:48:00,76.1,63.0,29.97,West,260,10.4,10.4,64,0.00,CLR,,0.00,WeatherDisplay:10.37,2013-09-01 14:48:00,
2013-09-01 07:53:00,76.4,62.9,29.97,SW,230,9.2,9.2,63,0.00,CLR,,0.00,WeatherDisplay:10.37,2013-09-01 14:53:00,
2013-09-01 07:58:00,76.7,63.2,29.97,WSW,241,9.2,9.2,63,0.00,CLR,,0.00,WeatherDisplay:10.37,2013-09-01 14:58:00,
2013-09-01 08:03:00,77.0,63.0,29.97,WSW,239,6.0,6.0,62,0.00,CLR,,0.00,WeatherDisplay:10.37,2013-09-01 15:03:00,
2013-09-01 08:08:00,77.0,63.0,29.98,WSW,255,9.2,9.2,62,0.00,CLR,,0.00,WeatherDisplay:10.37,2013-09-01 15:08:00,
2013-09-01 08:13:00,77.0,63.0,29.98,WSW,244,6.9,6.9,62,0.00,CLR,,0.00,WeatherDisplay:10.37,2013-09-01 15:13:00,
2013-09-01 08:18:00,77.2,62.7,29.98,WSW,248,11.5,11.5,61,0.00,CLR,,0.00,WeatherDisplay:10.37,2013-09-01 15:18:00,
2013-09-01 08:23:00,77.4,62.9,29.98,WSW,256,12.0,12.0,61,0.00,CLR,,0.00,WeatherDisplay:10.37,2013-09-01 15:23:00,
2013-09-01 08:29:00,77.7,62.7,29.98,WSW,257,11.5,11.5,60,0.00,CLR,,0.00,WeatherDisplay:10.37,2013-09-01 15:29:00,
2013-09-01 08:34:00,78.0,63.0,29.98,SW,234,9.2,9.2,60,0.00,CLR,,0.00,WeatherDisplay:10.37,2013-09-01 15:34:00,
2013-09-01 08:39:00,78.1,63.1,29.98,WSW,253,6.0,6.0,60,0.00,CLR,,0.00,WeatherDisplay:10.37,2013-09-01 15:39:00,
2013-09-01 08:44:00,78.4,62.9,29.98,West,275,9.2,9.2,59,0.00,CLR,,0.00,WeatherDisplay:10.37,2013-09-01 15:44:00,
2013-09-01 08:49:00,78.7,62.7,29.97,WSW,243,11.5,11.5,58,0.00,CLR,,0.00,WeatherDisplay:10.37,2013-09-01 15:49:00,
2013-09-01 08:54:00,79.0,63.0,29.97,WSW,252,11.5,11.5,58,0.00,CLR,,0.00,WeatherDisplay:10.37,2013-09-01 15:54:00,
2013-09-01 08:59:00,79.3,62.7,29.97,SW,231,11.5,11.5,57,0.00,CLR,,0.00,WeatherDisplay:10.37,2013-09-01 15:59:00,
2013-09-01 09:04:00,79.6,62.5,29.97,WSW,244,11.5,11.5,56,0.00,CLR,,0.00,WeatherDisplay:10.37,2013-09-01 16:04:00,
2013-09-01 09:09:00,80.0,62.9,29.97,WSW,239,5.8,5.8,56,0.00,CLR,,0.00,WeatherDisplay:10.37,2013-09-01 16:09:00,
2013-09-01 09:14:00,80.7,63.0,29.97,SW,215,10.4,10.4,55,0.00,CLR,,0.00,WeatherDisplay:10.37,2013-09-01 16:14:00,
2013-09-01 09:19:00,80.6,62.9,29.98,SSW,202,9.0,9.0,55,0.00,CLR,,0.00,WeatherDisplay:10.37,2013-09-01 16:19:00,
2013-09-01 09:24:00,80.6,62.4,29.98,WSW,238,10.4,10.4,54,0.00,CLR,,0.00,WeatherDisplay:10.37,2013-09-01 16:24:00,
2013-09-01 09:29:00,80.9,62.2,29.98,SSW,210,12.7,12.7,53,0.00,CLR,,0.00,WeatherDisplay:10.37,2013-09-01 16:29:00,
2013-09-01 09:34:00,81.0,62.3,29.98,WSW,241,10.4,10.4,53,0.00,CLR,,0.00,WeatherDisplay:10.37,2013-09-01 16:34:00,
2013-09-01 09:39:00,81.7,62.4,29.98,SW,225,12.7,12.7,52,0.00,CLR,,0.00,WeatherDisplay:10.37,2013-09-01 16:39:00,
2013-09-01 09:44:00,82.4,62.5,29.98,SW,217,13.8,13.8,51,0.00,CLR,,0.00,WeatherDisplay:10.37,2013-09-01 16:44:00,
2013-09-01 09:49:00,83.3,62.7,29.98,SW,234,11.5,11.5,50,0.00,CLR,,0.00,WeatherDisplay:10.37,2013-09-01 16:49:00,
2013-09-01 09:54:00,83.5,62.3,29.98,WSW,240,11.5,11.5,49,0.00,CLR,,0.00,WeatherDisplay:10.37,2013-09-01 16:54:00,
2013-09-01 09:59:00,83.6,62.4,29.97,SW,222,11.5,11.5,49,0.00,CLR,,0.00,WeatherDisplay:10.37,2013-09-01 16:59:00,
2013-09-01 10:04:00,83.3,62.1,29.97,WSW,244,11.5,11.5,49,0.00,CLR,,0.00,WeatherDisplay:10.37,2013-09-01 17:04:00,
2013-09-01 10:09:00,83.2,62.1,29.97,WSW,250,13.8,13.8,49,0.00,CLR,,0.00,WeatherDisplay:10.37,2013-09-01 17:09:00,
2013-09-01 10:14:00,83.2,61.5,29.97,SSW,207,12.0,12.0,48,0.00,CLR,,0.00,WeatherDisplay:10.37,2013-09-01 17:14:00,
2013-09-01 10:19:00,83.3,61.0,29.98,WSW,250,13.0,13.0,47,0.00,CLR,,0.00,WeatherDisplay:10.37,2013-09-01 17:19:00,
2013-09-01 10:24:00,83.6,61.2,29.98,WSW,244,11.5,11.5,47,0.00,CLR,,0.00,WeatherDisplay:10.37,2013-09-01 17:24:00,
2013-09-01 10:29:00,84.2,61.8,29.97,SSW,211,11.5,11.5,47,0.00,CLR,,0.00,WeatherDisplay:10.37,2013-09-01 17:29:00,
2013-09-01 10:34:00,84.7,61.0,29.97,SW,222,11.5,11.5,45,0.00,CLR,,0.00,WeatherDisplay:10.37,2013-09-01 17:34:00,
2013-09-01 10:39:00,85.3,61.6,29.97,West,273,10.4,10.4,45,0.00,CLR,,0.00,WeatherDisplay:10.37,2013-09-01 17:39:00,
2013-09-01 10:44:00,86.2,61.1,29.97,SW,232,11.0,11.0,43,0.00,CLR,,0.00,WeatherDisplay:10.37,2013-09-01 17:44:00,
2013-09-01 10:49:00,86.5,61.3,29.97,WSW,254,12.7,12.7,43,0.00,CLR,,0.00,WeatherDisplay:10.37,2013-09-01 17:49:00,
2013-09-01 10:54:00,87.0,61.1,29.97,SW,236,16.1,16.1,42,0.00,CLR,,0.00,WeatherDisplay:10.37,2013-09-01 17:54:00,
2013-09-01 10:59:00,87.0,61.1,29.97,SSW,200,11.5,11.5,42,0.00,CLR,,0.00,WeatherDisplay:10.37,2013-09-01 17:59:00,
2013-09-01 11:04:00,86.9,61.7,29.97,WSW,244,16.1,16.1,43,0.00,CLR,,0.00,WeatherDisplay:10.37,2013-09-01 18:04:00,
2013-09-01 11:09:00,87.4,62.2,29.97,SW,220,13.8,13.8,43,0.00,CLR,,0.00,WeatherDisplay:10.37,2013-09-01 18:09:00,
2013-09-01 11:14:00,87.7,61.8,29.97,WSW,248,12.7,12.7,42,0.00,CLR,,0.00,WeatherDisplay:10.37,2013-09-01 18:14:00,
2013-09-01 11:19:00,86.7,61.5,29.97,SSW,212,11.5,11.5,43,0.00,CLR,,0.00,WeatherDisplay:10.37,2013-09-01 18:19:00,
2013-09-01 11:24:00,86.4,61.9,29.97,SW,232,11.5,11.5,44,0.00,CLR,,0.00,WeatherDisplay:10.37,2013-09-01 18:24:00,
2013-09-01 11:29:00,86.8,61.6,29.97,SSW,209,13.8,13.8,43,0.00,CLR,,0.00,WeatherDisplay:10.37,2013-09-01 18:29:00,
2013-09-01 11:34:00,87.3,62.1,29.96,SSW,199,17.3,17.3,43,0.00,CLR,,0.00,WeatherDisplay:10.37,2013-09-01 18:34:00,
2013-09-01 11:39:00,87.7,61.8,29.96,SSW,207,16.1,16.1,42,0.00,CLR,,0.00,WeatherDisplay:10.37,2013-09-01 18:39:00,
2013-09-01 11:44:00,88.0,62.0,29.96,WSW,253,15.0,15.0,42,0.00,CLR,,0.00,WeatherDisplay:10.37,2013-09-01 18:44:00,
2013-09-01 11:49:00,88.1,61.4,29.96,South,182,11.5,11.5,41,0.00,CLR,,0.00,WeatherDisplay:10.37,2013-09-01 18:49:00,
2013-09-01 11:54:00,88.2,61.5,29.96,South,190,17.3,17.3,41,0.00,CLR,,0.00,WeatherDisplay:10.37,2013-09-01 18:54:00,
2013-09-01 11:59:00,88.0,61.3,29.96,SSW,209,13.8,13.8,41,0.00,CLR,,0.00,WeatherDisplay:10.37,2013-09-01 18:59:00,
2013-09-01 12:04:00,87.9,61.3,29.96,SSW,203,13.8,13.8,41,0.00,CLR,,0.00,WeatherDisplay:10.37,2013-09-01 19:04:00,
2013-09-01 12:09:00,88.4,61.7,29.96,SSW,209,12.7,12.7,41,0.00,CLR,,0.00,WeatherDisplay:10.37,2013-09-01 19:09:00,
2013-09-01 12:14:00,88.9,61.5,29.96,SSW,210,16.1,16.1,40,0.00,CLR,,0.00,WeatherDisplay:10.37,2013-09-01 19:14:00,
2013-09-01 12:19:00,88.6,61.2,29.95,SSW,209,10.4,10.4,40,0.00,CLR,,0.00,WeatherDisplay:10.37,2013-09-01 19:19:00,
2013-09-01 12:24:00,89.4,61.2,29.95,South,183,12.7,12.7,39,0.00,CLR,,0.00,WeatherDisplay:10.37,2013-09-01 19:24:00,
2013-09-01 12:29:00,90.0,61.0,29.95,WSW,256,11.5,11.5,38,0.00,CLR,,0.00,WeatherDisplay:10.37,2013-09-01 19:29:00,
2013-09-01 12:34:00,90.6,61.5,29.95,South,179,11.5,11.5,38,0.00,CLR,,0.00,WeatherDisplay:10.37,2013-09-01 19:34:00,
2013-09-01 12:39:00,90.4,61.3,29.95,SSW,194,15.0,15.0,38,0.00,CLR,,0.00,WeatherDisplay:10.37,2013-09-01 19:39:00,
2013-09-01 12:44:00,90.1,60.3,29.95,SSW,194,17.0,17.0,37,0.00,CLR,,0.00,WeatherDisplay:10.37,2013-09-01 19:44:00,
2013-09-01 12:49:00,89.8,60.8,29.95,SSW,200,15.0,15.0,38,0.00,CLR,,0.00,WeatherDisplay:10.37,2013-09-01 19:49:00,
2013-09-01 12:54:00,90.5,61.4,29.95,SSW,196,15.0,15.0,38,0.00,CLR,,0.00,WeatherDisplay:10.37,2013-09-01 19:54:00,
2013-09-01 12:59:00,90.4,60.6,29.94,SSW,199,13.8,13.8,37,0.00,CLR,,0.00,WeatherDisplay:10.37,2013-09-01 19:59:00,
2013-09-01 13:04:00,91.2,60.5,29.94,South,186,15.0,15.0,36,0.00,CLR,,0.00,WeatherDisplay:10.37,2013-09-01 20:04:00,
2013-09-01 13:09:00,91.2,61.3,29.94,SW,230,18.4,18.4,37,0.00,CLR,,0.00,WeatherDisplay:10.37,2013-09-01 20:09:00,
2013-09-01 13:14:00,91.6,60.9,29.94,SSE,163,19.6,19.6,36,0.00,CLR,,0.00,WeatherDisplay:10.37,2013-09-01 20:14:00,
2013-09-01 13:19:00,91.7,61.0,29.94,South,191,14.0,14.0,36,0.00,CLR,,0.00,WeatherDisplay:10.37,2013-09-01 20:19:00,
2013-09-01 13:24:00,92.3,62.3,29.94,SW,232,19.6,19.6,37,0.00,CLR,,0.00,WeatherDisplay:10.37,2013-09-01 20:24:00,
2013-09-01 13:29:00,92.6,61.0,29.93,SW,221,12.7,12.7,35,0.00,CLR,,0.00,WeatherDisplay:10.37,2013-09-01 20:29:00,
2013-09-01 13:34:00,92.6,62.5,29.93,SW,222,19.6,19.6,37,0.00,CLR,,0.00,WeatherDisplay:10.37,2013-09-01 20:34:00,
2013-09-01 13:39:00,92.7,61.8,29.93,SSW,195,16.1,16.1,36,0.00,CLR,,0.00,WeatherDisplay:10.37,2013-09-01 20:39:00,
2013-09-01 13:44:00,91.8,62.6,29.93,SW,215,16.1,16.1,38,0.00,CLR,,0.00,WeatherDisplay:10.37,2013-09-01 20:44:00,
2013-09-01 13:49:00,91.4,63.0,29.93,SW,228,18.4,18.4,39,0.00,CLR,,0.00,WeatherDisplay:10.37,2013-09-01 20:49:00,
2013-09-01 13:54:00,92.0,62.8,29.93,WSW,253,17.3,17.3,38,0.00,CLR,,0.00,WeatherDisplay:10.37,2013-09-01 20:54:00,
2013-09-01 13:59:00,92.4,63.1,29.93,SW,229,16.1,16.1,38,0.00,CLR,,0.00,WeatherDisplay:10.37,2013-09-01 20:59:00,
2013-09-01 14:04:00,91.6,63.1,29.93,SW,222,19.6,19.6,39,0.00,CLR,,0.00,WeatherDisplay:10.37,2013-09-01 21:04:00,
2013-09-01 14:09:00,91.5,63.1,29.92,SW,231,24.2,24.2,39,0.00,CLR,,0.00,WeatherDisplay:10.37,2013-09-01 21:09:00,
2013-09-01 14:14:00,91.5,62.3,29.92,SW,236,24.2,24.2,38,0.00,CLR,,0.00,WeatherDisplay:10.37,2013-09-01 21:14:00,
2013-09-01 14:19:00,91.8,63.3,29.92,South,182,19.6,19.6,39,0.00,CLR,,0.00,WeatherDisplay:10.37,2013-09-01 21:19:00,
2013-09-01 14:24:00,92.2,63.7,29.92,SW,227,18.4,18.4,39,0.00,CLR,,0.00,WeatherDisplay:10.37,2013-09-01 21:24:00,
2013-09-01 14:29:00,92.2,62.9,29.92,SSW,212,18.4,18.4,38,0.00,CLR,,0.00,WeatherDisplay:10.37,2013-09-01 21:29:00,
2013-09-01 14:34:00,92.9,63.6,29.91,WSW,252,19.6,19.6,38,0.00,CLR,,0.00,WeatherDisplay:10.37,2013-09-01 21:34:00,
2013-09-01 14:39:00,92.5,63.2,29.91,South,173,17.3,17.3,38,0.00,CLR,,0.00,WeatherDisplay:10.37,2013-09-01 21:39:00,
2013-09-01 14:44:00,92.8,63.5,29.91,South,183,18.4,18.4,38,0.00,CLR,,0.00,WeatherDisplay:10.37,2013-09-01 21:44:00,
2013-09-01 14:49:00,92.6,63.3,29.91,SSW,211,21.9,21.9,38,0.00,CLR,,0.00,WeatherDisplay:10.37,2013-09-01 21:49:00,
2013-09-01 14:54:00,92.8,62.7,29.91,South,190,21.9,21.9,37,0.00,CLR,,0.00,WeatherDisplay:10.37,2013-09-01 21:54:00,
2013-09-01 14:59:00,92.8,63.5,29.91,SSW,192,21.9,21.9,38,0.00,CLR,,0.00,WeatherDisplay:10.37,2013-09-01 21:59:00,
2013-09-01 15:04:00,92.7,63.4,29.91,SSW,192,21.9,21.9,38,0.00,CLR,,0.00,WeatherDisplay:10.37,2013-09-01 22:04:00,
2013-09-01 15:09:00,92.5,62.4,29.91,SSW,207,19.6,19.6,37,0.00,CLR,,0.00,WeatherDisplay:10.37,2013-09-01 22:09:00,
2013-09-01 15:14:00,92.1,62.8,29.91,SSW,200,24.2,24.2,38,0.00,CLR,,0.00,WeatherDisplay:10.37,2013-09-01 22:14:00,
2013-09-01 15:19:00,92.2,62.9,29.91,SSW,205,18.4,18.4,38,0.00,CLR,,0.00,WeatherDisplay:10.37,2013-09-01 22:19:00,
2013-09-01 15:24:00,92.3,63.0,29.91,SSW,211,15.0,15.0,38,0.00,CLR,,0.00,WeatherDisplay:10.37,2013-09-01 22:24:00,
2013-09-01 15:29:00,92.2,62.9,29.90,SW,215,16.1,16.1,38,0.00,CLR,,0.00,WeatherDisplay:10.37,2013-09-01 22:29:00,
2013-09-01 15:34:00,92.9,62.8,29.90,SW,219,24.2,24.2,37,0.00,CLR,,0.00,WeatherDisplay:10.37,2013-09-01 22:34:00,
2013-09-01 15:39:00,92.3,63.0,29.90,SSE,163,19.6,19.6,38,0.00,CLR,,0.00,WeatherDisplay:10.37,2013-09-01 22:39:00,
2013-09-01 15:44:00,92.5,63.2,29.90,SSW,211,24.2,24.2,38,0.00,CLR,,0.00,WeatherDisplay:10.37,2013-09-01 22:44:00,
2013-09-01 15:49:00,91.8,62.6,29.90,SSW,195,23.0,23.0,38,0.00,CLR,,0.00,WeatherDisplay:10.37,2013-09-01 22:49:00,
2013-09-01 15:54:00,91.9,62.7,29.90,SSW,196,21.9,21.9,38,0.00,CLR,,0.00,WeatherDisplay:10.37,2013-09-01 22:54:00,
2013-09-01 15:59:00,91.8,62.6,29.90,SSW,198,21.9,21.9,38,0.00,CLR,,0.00,WeatherDisplay:10.37,2013-09-01 22:59:00,
2013-09-01 16:04:00,91.4,63.0,29.90,South,186,19.6,19.6,39,0.00,CLR,,0.00,WeatherDisplay:10.37,2013-09-01 23:04:00,
2013-09-01 16:09:00,91.2,62.0,29.90,SSW,211,24.2,24.2,38,0.00,CLR,,0.00,WeatherDisplay:10.37,2013-09-01 23:09:00,
2013-09-01 16:14:00,91.5,61.6,29.90,South,188,23.0,23.0,37,0.00,CLR,,0.00,WeatherDisplay:10.37,2013-09-01 23:14:00,
2013-09-01 16:19:00,91.1,62.7,29.90,SSW,208,24.2,24.2,39,0.00,CLR,,0.00,WeatherDisplay:10.37,2013-09-01 23:19:00,
2013-09-01 16:24:00,90.3,62.0,29.90,SSW,198,23.0,23.0,39,0.00,CLR,,0.00,WeatherDisplay:10.37,2013-09-01 23:24:00,
2013-09-01 16:29:00,90.8,61.7,29.90,SW,229,25.3,25.3,38,0.00,CLR,,0.00,WeatherDisplay:10.37,2013-09-01 23:29:00,
2013-09-01 16:34:00,90.7,60.8,29.90,SSW,202,20.7,20.7,37,0.00,CLR,,0.00,WeatherDisplay:10.37,2013-09-01 23:34:00,
2013-09-01 16:39:00,90.8,61.7,29.90,SSW,210,19.6,19.6,38,0.00,CLR,,0.00,WeatherDisplay:10.37,2013-09-01 23:39:00,
2013-09-01 16:44:00,91.2,61.3,29.90,SW,222,20.7,20.7,37,0.00,CLR,,0.00,WeatherDisplay:10.37,2013-09-01 23:44:00,
2013-09-01 16:49:00,90.9,61.0,29.90,SW,232,19.6,19.6,37,0.00,CLR,,0.00,WeatherDisplay:10.37,2013-09-01 23:49:00,
2013-09-01 16:54:00,90.3,61.2,29.89,SW,236,23.0,23.0,38,0.00,CLR,,0.00,WeatherDisplay:10.37,2013-09-01 23:54:00,
2013-09-01 16:59:00,89.6,62.1,29.90,WSW,242,15.0,15.0,40,0.00,CLR,,0.00,WeatherDisplay:10.37,2013-09-01 23:59:00,
2013-09-01 17:04:00,89.1,62.3,29.89,SSW,209,23.0,23.0,41,0.00,CLR,,0.00,WeatherDisplay:10.37,2013-09-02 00:04:00,
2013-09-01 17:09:00,88.9,62.2,29.89,SSW,201,23.0,23.0,41,0.00,CLR,,0.00,WeatherDisplay:10.37,2013-09-02 00:09:00,
2013-09-01 17:14:00,89.2,61.0,29.89,SW,224,23.0,23.0,39,0.00,CLR,,0.00,WeatherDisplay:10.37,2013-09-02 00:14:00,
2013-09-01 17:19:00,88.9,60.7,29.89,SW,221,24.2,24.2,39,0.00,CLR,,0.00,WeatherDisplay:10.37,2013-09-02 00:19:00,
2013-09-01 17:24:00,89.0,62.2,29.89,SW,223,20.7,20.7,41,0.00,CLR,,0.00,WeatherDisplay:10.37,2013-09-02 00:24:00,
2013-09-01 17:29:00,89.3,61.8,29.90,SW,215,24.2,24.2,40,0.00,CLR,,0.00,WeatherDisplay:10.37,2013-09-02 00:29:00,
2013-09-01 17:34:00,89.4,61.9,29.90,WSW,239,19.6,19.6,40,0.00,CLR,,0.00,WeatherDisplay:10.37,2013-09-02 00:34:00,
2013-09-01 17:39:00,89.7,62.2,29.90,South,190,22.0,22.0,40,0.00,CLR,,0.00,WeatherDisplay:10.37,2013-09-02 00:39:00,
2013-09-01 17:44:00,89.8,63.0,29.90,SSW,210,25.0,25.0,41,0.00,CLR,,0.00,WeatherDisplay:10.37,2013-09-02 00:44:00,
2013-09-01 17:49:00,88.9,62.2,29.90,SSW,209,21.9,21.9,41,0.00,CLR,,0.00,WeatherDisplay:10.37,2013-09-02 00:49:00,
2013-09-01 17:54:00,88.1,62.1,29.90,SSW,213,23.0,23.0,42,0.00,CLR,,0.00,WeatherDisplay:10.37,2013-09-02 00:54:00,
2013-09-01 17:59:00,87.5,61.6,29.90,SSW,212,16.1,16.1,42,0.00,CLR,,0.00,WeatherDisplay:10.37,2013-09-02 00:59:00,
2013-09-01 18:04:00,87.4,61.5,29.90,SSW,207,15.0,15.0,42,0.00,CLR,,0.00,WeatherDisplay:10.37,2013-09-02 01:04:00,
2013-09-01 18:09:00,86.8,62.3,29.90,SSW,212,19.6,19.6,44,0.00,CLR,,0.00,WeatherDisplay:10.37,2013-09-02 01:09:00,
2013-09-01 18:14:00,86.4,61.9,29.90,SW,218,23.0,23.0,44,0.00,CLR,,0.00,WeatherDisplay:10.37,2013-09-02 01:14:00,
2013-09-01 18:19:00,86.1,62.3,29.90,SW,219,20.7,20.7,45,0.00,CLR,,0.00,WeatherDisplay:10.37,2013-09-02 01:19:00,
2013-09-01 18:24:00,86.1,61.6,29.90,SW,214,15.0,15.0,44,0.00,CLR,,0.00,WeatherDisplay:10.37,2013-09-02 01:24:00,
2013-09-01 18:29:00,86.1,62.3,29.90,SSW,206,20.7,20.7,45,0.00,CLR,,0.00,WeatherDisplay:10.37,2013-09-02 01:29:00,
2013-09-01 18:34:00,85.9,61.5,29.90,SSW,213,23.0,23.0,44,0.00,CLR,,0.00,WeatherDisplay:10.37,2013-09-02 01:34:00,
2013-09-01 18:39:00,85.5,61.7,29.90,SW,230,20.7,20.7,45,0.00,CLR,,0.00,WeatherDisplay:10.37,2013-09-02 01:39:00,
2013-09-01 18:44:00,85.1,61.4,29.90,SW,217,19.6,19.6,45,0.00,CLR,,0.00,WeatherDisplay:10.37,2013-09-02 01:44:00,
2013-09-01 18:49:00,84.9,61.8,29.90,WSW,245,19.6,19.6,46,0.00,CLR,,0.00,WeatherDisplay:10.37,2013-09-02 01:49:00,
2013-09-01 18:54:00,84.3,62.5,29.90,SW,234,19.6,19.6,48,0.00,CLR,,0.00,WeatherDisplay:10.37,2013-09-02 01:54:00,
2013-09-01 18:59:00,83.8,62.6,29.90,SSW,211,19.6,19.6,49,0.00,CLR,,0.00,WeatherDisplay:10.37,2013-09-02 01:59:00,
2013-09-01 19:04:00,83.5,62.9,29.91,SSW,203,19.6,19.6,50,0.00,CLR,,0.00,WeatherDisplay:10.37,2013-09-02 02:04:00,
2013-09-01 19:09:00,83.2,62.6,29.91,WSW,241,20.7,20.7,50,0.00,CLR,,0.00,WeatherDisplay:10.37,2013-09-02 02:09:00,
2013-09-01 19:14:00,82.9,62.4,29.91,SSW,212,21.9,21.9,50,0.00,CLR,,0.00,WeatherDisplay:10.37,2013-09-02 02:14:00,
2013-09-01 19:19:00,82.9,61.8,29.91,SW,224,19.6,19.6,49,0.00,CLR,,0.00,WeatherDisplay:10.37,2013-09-02 02:19:00,
2013-09-01 19:24:00,82.8,61.7,29.91,SSW,200,19.6,19.6,49,0.00,CLR,,0.00,WeatherDisplay:10.37,2013-09-02 02:24:00,
2013-09-01 19:29:00,82.8,61.7,29.91,SW,235,20.7,20.7,49,0.00,CLR,,0.00,WeatherDisplay:10.37,2013-09-02 02:29:00,
2013-09-01 19:34:00,82.7,61.0,29.91,SSW,195,19.6,19.6,48,0.00,CLR,,0.00,WeatherDisplay:10.37,2013-09-02 02:34:00,
2013-09-01 19:39:00,82.7,61.6,29.91,West,259,18.4,18.4,49,0.00,CLR,,0.00,WeatherDisplay:10.37,2013-09-02 02:39:00,
2013-09-01 19:44:00,82.6,61.5,29.90,SW,229,18.4,18.4,49,0.00,CLR,,0.00,WeatherDisplay:10.37,2013-09-02 02:44:00,
2013-09-01 19:49:00,82.5,61.4,29.91,SW,220,20.0,20.0,49,0.00,CLR,,0.00,WeatherDisplay:10.37,2013-09-02 02:49:00,
2013-09-01 19:54:00,82.4,61.3,29.90,SW,222,19.6,19.6,49,0.00,CLR,,0.00,WeatherDisplay:10.37,2013-09-02 02:54:00,
2013-09-01 19:59:00,82.3,60.6,29.91,SW,219,19.6,19.6,48,0.00,CLR,,0.00,WeatherDisplay:10.37,2013-09-02 02:59:00,
2013-09-01 20:04:00,82.1,61.0,29.91,SSW,209,19.6,19.6,49,0.00,CLR,,0.00,WeatherDisplay:10.37,2013-09-02 03:04:00,
2013-09-01 20:09:00,82.0,61.0,29.91,SW,226,19.6,19.6,49,0.00,CLR,,0.00,WeatherDisplay:10.37,2013-09-02 03:09:00,
2013-09-01 20:14:00,82.0,61.0,29.91,South,190,21.9,21.9,49,0.00,CLR,,0.00,WeatherDisplay:10.37,2013-09-02 03:14:00,
2013-09-01 20:19:00,81.9,60.9,29.92,SW,217,16.1,16.1,49,0.00,CLR,,0.00,WeatherDisplay:10.37,2013-09-02 03:19:00,
2013-09-01 20:24:00,81.7,60.7,29.92,SW,234,16.1,16.1,49,0.00,CLR,,0.00,WeatherDisplay:10.37,2013-09-02 03:24:00,
2013-09-01 20:29:00,81.6,61.2,29.92,SW,219,13.8,13.8,50,0.00,CLR,,0.00,WeatherDisplay:10.37,2013-09-02 03:29:00,
2013-09-01 20:34:00,81.4,61.0,29.93,SSW,209,11.5,11.5,50,0.00,CLR,,0.00,WeatherDisplay:10.37,2013-09-02 03:34:00,
2013-09-01 20:39:00,81.3,60.9,29.93,SSW,202,16.1,16.1,50,0.00,CLR,,0.00,WeatherDisplay:10.37,2013-09-02 03:39:00,
2013-09-01 20:44:00,81.2,61.4,29.93,SSW,196,20.7,20.7,51,0.00,CLR,,0.00,WeatherDisplay:10.37,2013-09-02 03:44:00,
2013-09-01 20:49:00,81.0,61.2,29.93,WSW,246,11.5,11.5,51,0.00,CLR,,0.00,WeatherDisplay:10.37,2013-09-02 03:49:00,
2013-09-01 20:54:00,80.8,61.5,29.94,WSW,251,16.0,16.0,52,0.00,CLR,,0.00,WeatherDisplay:10.37,2013-09-02 03:54:00,
2013-09-01 20:59:00,80.6,61.3,29.94,SW,232,13.8,13.8,52,0.00,CLR,,0.00,WeatherDisplay:10.37,2013-09-02 03:59:00,
2013-09-01 21:01:00,80.5,61.3,29.94,SW,220,18.0,18.0,52,0.00,CLR,,0.00,WeatherDisplay:10.37,2013-09-02 04:01:00,
2013-09-01 21:02:00,80.5,61.3,29.94,SW,221,17.3,17.3,52,0.00,CLR,,0.00,WeatherDisplay:10.37,2013-09-02 04:02:00,
2013-09-01 21:03:00,80.4,61.2,29.94,SSW,211,17.3,17.3,52,0.00,CLR,,0.00,WeatherDisplay:10.37,2013-09-02 04:03:00,
2013-09-01 21:05:00,80.3,61.6,29.94,SW,218,15.0,15.0,53,0.00,CLR,,0.00,WeatherDisplay:10.37,2013-09-02 04:05:00,
2013-09-01 21:10:00,80.1,61.4,29.94,WSW,252,18.4,18.4,53,0.00,CLR,,0.00,WeatherDisplay:10.37,2013-09-02 04:10:00,
2013-09-01 21:13:00,80.0,61.3,29.94,SW,215,13.8,13.8,53,0.00,CLR,,0.00,WeatherDisplay:10.37,2013-09-02 04:13:00,
2013-09-01 21:18:00,79.9,61.2,29.95,SW,221,11.5,11.5,53,0.00,CLR,,0.00,WeatherDisplay:10.37,2013-09-02 04:18:00,
2013-09-01 21:23:00,79.7,61.6,29.94,SW,219,11.5,11.5,54,0.00,CLR,,0.00,WeatherDisplay:10.37,2013-09-02 04:23:00,
2013-09-01 21:28:00,79.6,61.5,29.95,SSW,204,12.7,12.7,54,0.00,CLR,,0.00,WeatherDisplay:10.37,2013-09-02 04:28:00,
2013-09-01 21:33:00,79.5,61.4,29.95,SSW,202,17.0,17.0,54,0.00,CLR,,0.00,WeatherDisplay:10.37,2013-09-02 04:33:00,
2013-09-01 21:38:00,79.4,61.3,29.95,WSW,242,16.1,16.1,54,0.00,CLR,,0.00,WeatherDisplay:10.37,2013-09-02 04:38:00,
2013-09-01 21:43:00,79.3,61.7,29.95,SW,216,13.8,13.8,55,0.00,CLR,,0.00,WeatherDisplay:10.37,2013-09-02 04:43:00,
2013-09-01 21:48:00,79.2,62.1,29.95,SSW,202,13.8,13.8,56,0.00,CLR,,0.00,WeatherDisplay:10.37,2013-09-02 04:48:00,
2013-09-01 21:53:00,79.1,62.1,29.95,SSW,209,16.1,16.1,56,0.00,CLR,,0.00,WeatherDisplay:10.37,2013-09-02 04:53:00,
2013-09-01 21:58:00,79.0,62.0,29.95,SSW,209,12.0,12.0,56,0.00,CLR,,0.00,WeatherDisplay:10.37,2013-09-02 04:58:00,
2013-09-01 22:03:00,78.9,62.4,29.95,SW,220,16.1,16.1,57,0.00,CLR,,0.00,WeatherDisplay:10.37,2013-09-02 05:03:00,
2013-09-01 22:08:00,78.8,62.3,29.95,SSW,208,16.1,16.1,57,0.00,CLR,,0.00,WeatherDisplay:10.37,2013-09-02 05:08:00,
2013-09-01 22:13:00,78.7,62.2,29.95,SW,214,15.0,15.0,57,0.00,CLR,,0.00,WeatherDisplay:10.37,2013-09-02 05:13:00,
2013-09-01 22:18:00,78.7,62.2,29.95,SW,217,15.0,15.0,57,0.00,CLR,,0.00,WeatherDisplay:10.37,2013-09-02 05:18:00,
2013-09-01 22:23:00,78.5,62.5,29.95,SW,236,12.7,12.7,58,0.00,CLR,,0.00,WeatherDisplay:10.37,2013-09-02 05:23:00,
2013-09-01 22:28:00,78.4,62.4,29.95,SW,230,17.3,17.3,58,0.00,CLR,,0.00,WeatherDisplay:10.37,2013-09-02 05:28:00,
2013-09-01 22:33:00,78.3,62.3,29.95,SW,226,16.1,16.1,58,0.00,CLR,,0.00,WeatherDisplay:10.37,2013-09-02 05:33:00,
2013-09-01 22:38:00,78.2,61.7,29.95,SW,214,16.1,16.1,57,0.00,CLR,,0.00,WeatherDisplay:10.37,2013-09-02 05:38:00,
2013-09-01 22:43:00,78.2,62.2,29.95,WSW,251,15.0,15.0,58,0.00,CLR,,0.00,WeatherDisplay:10.37,2013-09-02 05:43:00,
2013-09-01 22:48:00,78.0,62.0,29.95,SSW,205,11.5,11.5,58,0.00,CLR,,0.00,WeatherDisplay:10.37,2013-09-02 05:48:00,
2013-09-01 22:53:00,77.9,61.9,29.95,SW,221,15.0,15.0,58,0.00,CLR,,0.00,WeatherDisplay:10.37,2013-09-02 05:53:00,
2013-09-01 22:58:00,77.8,62.3,29.95,SW,236,15.0,15.0,59,0.00,CLR,,0.00,WeatherDisplay:10.37,2013-09-02 05:58:00,
2013-09-01 23:03:00,77.6,62.1,29.95,SW,227,16.1,16.1,59,0.00,CLR,,0.00,WeatherDisplay:10.37,2013-09-02 06:03:00,
2013-09-01 23:08:00,77.5,62.0,29.95,SW,214,17.3,17.3,59,0.00,CLR,,0.00,WeatherDisplay:10.37,2013-09-02 06:08:00,
2013-09-01 23:13:00,77.5,61.6,29.95,SW,215,15.0,15.0,58,0.00,CLR,,0.00,WeatherDisplay:10.37,2013-09-02 06:13:00,
2013-09-01 23:18:00,77.5,61.6,29.95,WSW,245,16.1,16.1,58,0.00,CLR,,0.00,WeatherDisplay:10.37,2013-09-02 06:18:00,
2013-09-01 23:23:00,77.5,61.6,29.95,SSW,212,12.7,12.7,58,0.00,CLR,,0.00,WeatherDisplay:10.37,2013-09-02 06:23:00,
2013-09-01 23:28:00,77.5,61.1,29.95,SSW,199,11.5,11.5,57,0.00,CLR,,0.00,WeatherDisplay:10.37,2013-09-02 06:28:00,
2013-09-01 23:33:00,77.4,61.0,29.96,SW,226,13.8,13.8,57,0.00,CLR,,0.00,WeatherDisplay:10.37,2013-09-02 06:33:00,
2013-09-01 23:38:00,77.3,61.4,29.96,SW,227,6.9,6.9,58,0.00,CLR,,0.00,WeatherDisplay:10.37,2013-09-02 06:38:00,
2013-09-01 23:43:00,77.3,61.4,29.96,SSW,195,9.2,9.2,58,0.00,CLR,,0.00,WeatherDisplay:10.37,2013-09-02 06:43:00,
2013-09-01 23:48:00,77.1,61.2,29.96,WSW,252,9.2,9.2,58,0.00,CLR,,0.00,WeatherDisplay:10.37,2013-09-02 06:48:00,
2013-09-01 23:53:00,77.1,61.2,29.96,WSW,256,6.9,6.9,58,0.00,CLR,,0.00,WeatherDisplay:10.37,2013-09-02 06:53:00,
2013-09-01 23:58:00,77.0,61.1,29.96,SW,235,6.9,6.9,58,0.00,CLR,,0.00,WeatherDisplay:10.37,2013-09-02 06:58:00,